Time;durP1;ratioP1;P1;durP2;ratioP2;P2;SDS_P1;SDS_P2;PMS_P1;PMS_P2;Temp;Humidity;BMP_temperature;BMP_pressure;BME280_temperature;BME280_humidity;BME280_pressure;Samples;Min_cycle;Max_cycle;Signal;HPM_P1;HPM_P2
2022/10/11 00:00:48;;;;;;;28.87;26.60;;;;;;;7.31;100.00;101925.50;5011477;28;20433;-52
2022/10/11 00:03:16;;;;;;;29.40;27.40;;;;;;;7.29;100.00;101923.97;5014947;28;21018;-47
2022/10/11 00:05:44;;;;;;;29.70;27.60;;;;;;;7.26;100.00;101934.88;5014967;28;20477;-50
2022/10/11 00:08:13;;;;;;;29.17;26.97;;;;;;;7.24;100.00;101951.78;5014280;28;20453;-51
2022/10/11 00:10:41;;;;;;;29.53;27.60;;;;;;;7.23;100.00;101938.63;5014922;28;20441;-54
2022/10/11 00:13:10;;;;;;;30.07;27.77;;;;;;;7.21;100.00;101946.75;5014721;28;21003;-55
2022/10/11 00:15:40;;;;;;;29.93;27.90;;;;;;;7.19;100.00;101946.06;5014789;28;20767;-54
2022/10/11 00:18:07;;;;;;;29.60;27.80;;;;;;;7.19;100.00;101953.19;5013392;28;20527;-50
2022/10/11 00:20:35;;;;;;;29.73;27.63;;;;;;;7.19;100.00;101953.19;5006340;28;20489;-54
2022/10/11 00:23:02;;;;;;;29.40;27.10;;;;;;;7.18;100.00;101949.69;5014590;28;20483;-54
2022/10/11 00:25:30;;;;;;;29.47;26.83;;;;;;;7.15;100.00;101947.34;5014634;28;20959;-50
2022/10/11 00:27:57;;;;;;;28.47;26.77;;;;;;;7.14;100.00;101953.59;5013242;28;20539;-54
2022/10/11 00:30:26;;;;;;;29.37;26.90;;;;;;;7.13;100.00;101954.59;5014489;28;20437;-52
2022/10/11 00:32:54;;;;;;;29.40;27.50;;;;;;;7.11;100.00;101959.19;5014147;28;20441;-50
2022/10/11 00:35:21;;;;;;;30.13;28.20;;;;;;;7.10;100.00;101959.38;5014756;28;20910;-53
2022/10/11 00:37:49;;;;;;;29.50;27.83;;;;;;;7.10;100.00;101962.00;5013020;28;20496;-52
2022/10/11 00:40:19;;;;;;;29.07;27.10;;;;;;;7.09;100.00;101965.63;5014439;28;20495;-54
2022/10/11 00:42:47;;;;;;;30.63;28.33;;;;;;;7.05;100.00;101970.38;5014201;28;20429;-50
2022/10/11 00:46:00;;;;;;;30.10;28.17;;;;;;;7.05;100.00;101975.69;5014159;28;20527;-50
2022/10/11 00:48:36;;;;;;;30.50;28.43;;;;;;;7.03;100.00;101966.22;4977866;28;20487;-48
2022/10/11 00:51:07;;;;;;;31.07;28.40;;;;;;;7.02;100.00;101970.69;5013990;28;20433;-56
2022/10/11 00:53:35;;;;;;;29.87;27.50;;;;;;;7.03;100.00;101976.81;5014156;28;20472;-54
2022/10/11 00:56:09;;;;;;;29.43;27.30;;;;;;;7.01;100.00;101961.06;5013857;28;20425;-55
2022/10/11 00:58:38;;;;;;;30.73;28.20;;;;;;;7.00;100.00;101975.28;5012826;28;20457;-53
2022/10/11 01:01:06;;;;;;;28.93;27.10;;;;;;;6.99;100.00;101976.25;5013747;28;20878;-50
2022/10/11 01:03:36;;;;;;;29.00;27.10;;;;;;;6.97;100.00;101967.63;5013823;28;20965;-49
2022/10/11 01:06:04;;;;;;;29.47;27.40;;;;;;;6.96;100.00;101971.25;5013786;28;20815;-50
2022/10/11 01:08:32;;;;;;;29.73;27.67;;;;;;;6.94;100.00;101970.56;5012595;28;20457;-50
2022/10/11 01:11:00;;;;;;;29.33;27.37;;;;;;;6.94;100.00;101975.03;5013677;28;20433;-54
2022/10/11 01:13:38;;;;;;;28.93;27.03;;;;;;;6.91;100.00;101984.09;5013040;28;20468;-53
2022/10/11 01:16:13;;;;;;;31.20;29.40;;;;;;;6.90;100.00;101976.31;5013651;28;20425;-53
2022/10/11 01:18:49;;;;;;;30.63;28.50;;;;;;;6.86;100.00;101981.06;5012185;28;20985;-50
2022/10/11 01:21:32;;;;;;;30.03;27.30;;;;;;;6.87;100.00;101981.91;5013365;28;20784;-51
2022/10/11 01:24:21;;;;;;;28.83;26.90;;;;;;;6.86;100.00;101986.38;4994057;28;20473;-49
2022/10/11 01:27:30;;;;;;;28.60;26.80;;;;;;;6.86;100.00;101991.66;4993798;28;20450;-52
2022/10/11 01:30:07;;;;;;;29.57;27.27;;;;;;;6.86;100.00;101994.31;4993748;28;20852;-54
2022/10/11 01:32:43;;;;;;;31.03;28.33;;;;;;;6.85;100.00;101997.09;4993737;28;20846;-54
2022/10/11 01:35:20;;;;;;;29.13;27.30;;;;;;;6.86;100.00;101996.97;4993833;28;20430;-49
2022/10/11 01:37:55;;;;;;;29.20;27.13;;;;;;;6.90;100.00;101995.69;4992166;28;20524;-51
2022/10/11 01:40:27;;;;;;;29.83;27.33;;;;;;;6.92;100.00;101998.22;4993835;28;20429;-51
2022/10/11 01:42:56;;;;;;;29.90;27.20;;;;;;;6.91;100.00;102004.47;4993545;28;20438;-52
2022/10/11 01:45:25;;;;;;;29.87;27.77;;;;;;;6.90;100.00;102008.94;4993498;28;20520;-50
2022/10/11 01:48:04;;;;;;;32.77;29.60;;;;;;;6.90;100.00;102008.13;4992872;28;20465;-51
2022/10/11 01:50:38;;;;;;;29.63;27.53;;;;;;;6.89;100.00;102012.59;4993657;28;20574;-52
2022/10/11 01:53:29;;;;;;;32.40;29.50;;;;;;;6.90;100.00;102008.94;4993393;28;20445;-50
2022/10/11 01:56:07;;;;;;;30.60;28.60;;;;;;;6.92;100.00;102020.25;4993344;28;20431;-52
2022/10/11 01:58:46;;;;;;;31.63;29.23;;;;;;;6.95;100.00;102033.25;4992900;28;20506;-54
2022/10/11 02:01:24;;;;;;;31.40;29.47;;;;;;;6.97;100.00;102041.03;4993126;28;20838;-53
2022/10/11 02:04:01;;;;;;;31.73;29.33;;;;;;;6.97;100.00;102043.69;4993427;28;20442;-53
2022/10/11 02:06:34;;;;;;;31.17;29.37;;;;;;;6.94;100.00;102036.88;4993138;28;20891;-51
2022/10/11 02:09:09;;;;;;;32.17;29.63;;;;;;;6.91;100.00;102039.78;4992845;28;20544;-52
2022/10/11 02:11:38;;;;;;;31.80;29.63;;;;;;;6.89;100.00;102039.09;4993069;28;20434;-50
2022/10/11 02:14:11;;;;;;;32.30;29.80;;;;;;;6.87;100.00;102035.75;4992999;28;20437;-49
2022/10/11 02:16:43;;;;;;;30.23;28.07;;;;;;;6.84;100.00;102035.22;4993005;28;20446;-50
2022/10/11 02:19:17;;;;;;;31.87;29.30;;;;;;;6.83;100.00;102034.38;4993419;28;20990;-51
2022/10/11 02:21:49;;;;;;;31.63;29.30;;;;;;;6.82;100.00;102035.34;5012362;28;20787;-54
2022/10/11 02:24:22;;;;;;;31.43;29.03;;;;;;;6.79;100.00;102035.63;5012112;28;20441;-48
2022/10/11 02:26:53;;;;;;;32.40;29.57;;;;;;;6.75;100.00;102036.88;5012076;28;20473;-49
2022/10/11 02:29:24;;;;;;;30.70;28.47;;;;;;;6.73;100.00;102038.00;5011814;28;21005;-53
2022/10/11 02:31:54;;;;;;;29.37;27.37;;;;;;;6.69;100.00;102042.72;5012096;28;20421;-55
2022/10/11 02:34:26;;;;;;;30.93;28.73;;;;;;;6.65;100.00;102033.41;5013046;28;20487;-55
2022/10/11 02:36:59;;;;;;;31.00;28.23;;;;;;;6.61;100.00;102040.78;5012316;28;20453;-53
2022/10/11 02:39:34;;;;;;;28.87;27.23;;;;;;;6.58;100.00;102034.91;5011760;28;20537;-54
2022/10/11 02:42:09;;;;;;;29.67;27.23;;;;;;;6.55;100.00;102040.50;5011827;28;20506;-54
2022/10/11 02:44:40;;;;;;;29.57;27.87;;;;;;;6.52;100.00;102038.13;5012380;28;20498;-55
2022/10/11 02:47:09;;;;;;;30.73;27.97;;;;;;;6.48;100.00;102039.41;5012209;28;21014;-56
2022/10/11 02:49:38;;;;;;;28.60;26.80;;;;;;;6.46;100.00;102038.69;5011645;28;20469;-54
2022/10/11 02:52:06;;;;;;;30.37;28.17;;;;;;;6.44;100.00;102048.59;5011918;28;20425;-55
2022/10/11 02:54:34;;;;;;;29.83;27.93;;;;;;;6.42;100.00;102045.25;5011926;28;20441;-56
2022/10/11 02:57:02;;;;;;;30.53;28.40;;;;;;;6.39;100.00;102049.00;5012096;28;20495;-50
2022/10/11 02:59:29;;;;;;;29.90;27.93;;;;;;;6.40;100.00;102057.78;5011505;28;21053;-53
2022/10/11 03:01:57;;;;;;;35.00;28.90;;;;;;;6.38;100.00;102057.94;5011711;28;20436;-54
2022/10/11 03:04:24;;;;;;;31.53;28.87;;;;;;;6.40;100.00;102055.97;5011950;28;20444;-53
2022/10/11 03:06:53;;;;;;;30.03;27.77;;;;;;;6.41;100.00;102057.66;5011752;28;20550;-52
2022/10/11 03:09:21;;;;;;;31.30;28.70;;;;;;;6.41;100.00;102056.81;5011339;28;20503;-52
2022/10/11 03:11:49;;;;;;;30.20;28.30;;;;;;;6.41;100.00;102060.31;5011796;28;20463;-53
2022/10/11 03:14:16;;;;;;;30.70;28.40;;;;;;;6.43;100.00;102063.66;5012035;28;20495;-53
2022/10/11 03:16:44;;;;;;;30.23;27.50;;;;;;;6.45;100.00;102061.69;5011755;28;20962;-49
2022/10/11 03:19:12;;;;;;;30.93;28.40;;;;;;;6.48;100.00;102069.38;5011186;28;20492;-54
2022/10/11 03:21:45;;;;;;;31.90;29.53;;;;;;;6.50;100.00;102074.53;5003274;28;20487;-53
2022/10/11 03:24:14;;;;;;;31.23;29.03;;;;;;;6.50;100.00;102079.84;5011704;28;20441;-50
2022/10/11 03:26:42;;;;;;;31.83;28.70;;;;;;;6.48;100.00;102082.59;5011477;28;20531;-53
2022/10/11 03:29:09;;;;;;;31.57;29.27;;;;;;;6.46;100.00;102078.44;5011374;28;20469;-52
2022/10/11 03:31:37;;;;;;;31.10;28.87;;;;;;;6.45;100.00;102077.59;5011553;28;20433;-53
2022/10/11 03:34:04;;;;;;;30.27;28.50;;;;;;;6.44;100.00;102077.75;5011725;28;20533;-50
2022/10/11 03:36:32;;;;;;;33.37;30.50;;;;;;;6.44;100.00;102083.88;5012760;28;20452;-52
2022/10/11 03:39:01;;;;;;;29.30;27.50;;;;;;;6.44;100.00;102091.00;5015173;28;20878;-53
2022/10/11 03:41:31;;;;;;;29.77;27.73;;;;;;;6.46;100.00;102091.69;5014224;28;20495;-53
2022/10/11 03:43:59;;;;;;;29.70;27.60;;;;;;;6.49;100.00;102088.75;5008244;28;20437;-50
2022/10/11 03:46:26;;;;;;;30.20;27.77;;;;;;;6.51;100.00;102084.19;5013064;28;20530;-51
2022/10/11 03:48:54;;;;;;;30.53;28.50;;;;;;;6.55;100.00;102080.25;5014384;28;20523;-51
2022/10/11 03:51:21;;;;;;;32.33;29.23;;;;;;;6.59;100.00;102097.56;5015140;28;20437;-53
2022/10/11 03:53:49;;;;;;;32.73;30.03;;;;;;;6.62;100.00;102099.94;5015095;28;20441;-49
2022/10/11 03:56:16;;;;;;;32.33;29.60;;;;;;;6.68;100.00;102099.41;5014936;28;20507;-50
2022/10/11 03:58:45;;;;;;;31.17;28.90;;;;;;;6.71;100.00;102101.78;5014590;28;20997;-49
2022/10/11 04:01:13;;;;;;;33.17;30.70;;;;;;;6.72;100.00;102098.13;5014699;28;20429;-50
2022/10/11 04:03:41;;;;;;;35.17;31.23;;;;;;;6.73;100.00;102106.91;5015203;28;20444;-53
2022/10/11 04:06:09;;;;;;;34.17;30.63;;;;;;;6.74;100.00;102111.25;5015074;28;20468;-53
2022/10/11 04:08:36;;;;;;;34.10;31.00;;;;;;;6.69;100.00;102115.16;5014597;28;20464;-54
2022/10/11 04:11:04;;;;;;;32.70;30.40;;;;;;;6.67;100.00;102113.63;5014685;28;20440;-54
2022/10/11 04:13:32;;;;;;;33.57;30.43;;;;;;;6.68;100.00;102115.28;5014864;28;20495;-50
2022/10/11 04:16:01;;;;;;;32.40;30.10;;;;;;;6.68;100.00;102117.94;5014522;28;20433;-50
2022/10/11 04:18:29;;;;;;;32.73;30.30;;;;;;;6.67;100.00;102122.41;5014525;28;20865;-50
2022/10/11 04:20:56;;;;;;;33.57;30.70;;;;;;;6.69;100.00;102122.25;5006184;28;20433;-53
2022/10/11 04:23:24;;;;;;;34.13;30.97;;;;;;;6.68;100.00;102125.91;5014608;28;20437;-53
2022/10/11 04:25:52;;;;;;;32.13;30.13;;;;;;;6.66;100.00;102126.03;5014419;28;20441;-49
2022/10/11 04:28:19;;;;;;;35.53;32.27;;;;;;;6.65;100.00;102131.47;5013883;28;20469;-49
2022/10/11 04:30:47;;;;;;;33.73;30.50;;;;;;;6.63;100.00;102133.44;5014313;28;20961;-52
2022/10/11 04:33:16;;;;;;;33.57;31.17;;;;;;;6.62;100.00;102129.94;5014644;28;20446;-50
2022/10/11 04:35:43;;;;;;;34.20;30.53;;;;;;;6.60;100.00;102134.53;5014462;28;20997;-53
2022/10/11 04:38:11;;;;;;;32.87;30.13;;;;;;;6.59;100.00;102132.88;5014036;28;20476;-53
2022/10/11 04:40:39;;;;;;;32.50;30.30;;;;;;;6.59;100.00;102137.31;5014313;28;20807;-55
2022/10/11 04:43:06;;;;;;;32.47;30.00;;;;;;;6.58;100.00;102136.47;5013981;28;20441;-51
2022/10/11 04:45:34;;;;;;;32.67;30.23;;;;;;;6.58;100.00;102135.63;5014390;28;20437;-51
2022/10/11 04:48:01;;;;;;;35.30;32.07;;;;;;;6.59;100.00;102137.31;5012451;28;20477;-51
2022/10/11 04:50:30;;;;;;;32.00;29.20;;;;;;;6.59;100.00;102142.63;5014226;28;20433;-51
2022/10/11 04:52:58;;;;;;;30.97;28.97;;;;;;;6.57;100.00;102144.59;5013932;28;20433;-52
2022/10/11 04:55:25;;;;;;;33.27;30.13;;;;;;;6.55;100.00;102152.66;5013813;28;20464;-47
2022/10/11 04:57:53;;;;;;;32.73;30.20;;;;;;;6.54;100.00;102142.22;5013630;28;20464;-49
2022/10/11 05:00:21;;;;;;;31.43;28.90;;;;;;;6.52;100.00;102147.63;5014024;28;20487;-48
2022/10/11 05:02:51;;;;;;;31.83;29.43;;;;;;;6.50;100.00;102152.22;5013700;28;20480;-48
2022/10/11 05:05:18;;;;;;;32.83;29.90;;;;;;;6.49;100.00;102155.00;5013865;28;20429;-53
2022/10/11 05:07:47;;;;;;;32.80;29.90;;;;;;;6.48;100.00;102167.41;5013233;28;20484;-54
2022/10/11 05:10:15;;;;;;;31.70;29.30;;;;;;;6.48;100.00;102163.94;5013523;28;20985;-51
2022/10/11 05:12:42;;;;;;;32.40;29.80;;;;;;;6.46;100.00;102166.72;5013547;28;20859;-51
2022/10/11 05:15:10;;;;;;;31.80;29.17;;;;;;;6.45;100.00;102165.03;5013627;28;20437;-54
2022/10/11 05:17:38;;;;;;;31.93;29.40;;;;;;;6.45;100.00;102172.97;5013088;28;20449;-49
2022/10/11 05:20:07;;;;;;;32.77;30.20;;;;;;;6.45;100.00;102180.94;5013309;28;20434;-54
2022/10/11 05:22:34;;;;;;;32.90;29.47;;;;;;;6.47;100.00;102186.97;5012973;28;20500;-51
2022/10/11 05:25:03;;;;;;;31.63;29.60;;;;;;;6.50;100.00;102196.44;5013558;28;20837;-51
2022/10/11 05:27:31;;;;;;;33.83;30.70;;;;;;;6.55;100.00;102207.47;5012790;28;20477;-51
2022/10/11 05:29:58;;;;;;;33.13;30.47;;;;;;;6.58;100.00;102208.03;5013394;28;20487;-49
2022/10/11 05:32:26;;;;;;;34.20;31.03;;;;;;;6.66;100.00;102202.91;5013177;28;20487;-49
2022/10/11 05:34:54;;;;;;;32.13;29.40;;;;;;;6.75;100.00;102206.53;5013272;28;20441;-50
2022/10/11 05:37:23;;;;;;;34.53;31.37;;;;;;;6.83;100.00;102203.22;5013089;28;20449;-50
2022/10/11 05:39:50;;;;;;;30.77;28.70;;;;;;;6.91;100.00;102208.66;5012710;28;20460;-47
2022/10/11 05:42:19;;;;;;;33.07;30.13;;;;;;;7.00;100.00;102215.81;5013012;28;20429;-46
2022/10/11 05:44:47;;;;;;;32.87;30.23;;;;;;;7.06;100.00;102212.59;5013164;28;20496;-47
2022/10/11 05:47:14;;;;;;;33.23;30.33;;;;;;;7.10;100.00;102216.66;5012717;28;20997;-49
2022/10/11 05:49:42;;;;;;;31.33;28.67;;;;;;;7.13;100.00;102225.19;5012423;28;20511;-48
2022/10/11 05:52:09;;;;;;;30.53;28.07;;;;;;;7.12;100.00;102223.50;5012971;28;20514;-51
2022/10/11 05:54:37;;;;;;;30.37;28.47;;;;;;;7.15;100.00;102230.34;5012992;28;20507;-46
2022/10/11 05:57:04;;;;;;;31.70;29.00;;;;;;;7.18;100.00;102238.03;5012589;28;20454;-48
2022/10/11 05:59:35;;;;;;;32.67;29.93;;;;;;;7.23;100.00;102239.28;5011985;28;20515;-53
2022/10/11 06:02:03;;;;;;;33.47;30.10;;;;;;;7.31;100.00;102232.47;5012927;28;20437;-47
2022/10/11 06:04:31;;;;;;;31.90;29.00;;;;;;;7.35;100.00;102232.03;5012540;28;20437;-48
2022/10/11 06:06:58;;;;;;;31.07;28.57;;;;;;;7.41;100.00;102228.81;5012635;28;20452;-49
2022/10/11 06:09:26;;;;;;;30.80;28.40;;;;;;;7.45;100.00;102238.19;5012172;28;20531;-48
2022/10/11 06:11:53;;;;;;;30.80;28.57;;;;;;;7.51;100.00;102239.44;5012236;28;20494;-47
2022/10/11 06:14:21;;;;;;;30.73;28.50;;;;;;;7.53;100.00;102230.34;5012618;28;20495;-45
2022/10/11 06:16:50;;;;;;;33.07;30.47;;;;;;;7.55;100.00;102240.84;5012201;28;20452;-47
2022/10/11 06:19:18;;;;;;;30.97;28.50;;;;;;;7.53;100.00;102238.31;5012012;28;20496;-45
2022/10/11 06:21:47;;;;;;;29.60;27.80;;;;;;;7.50;100.00;102251.03;5004134;28;20476;-46
2022/10/11 06:24:15;;;;;;;33.20;30.27;;;;;;;7.47;100.00;102253.97;5012317;28;20449;-48
2022/10/11 06:26:42;;;;;;;32.37;30.03;;;;;;;7.48;100.00;102250.34;5012198;28;20449;-46
2022/10/11 06:29:10;;;;;;;32.03;29.40;;;;;;;7.49;100.00;102257.34;5011604;28;20519;-47
2022/10/11 06:31:38;;;;;;;31.93;29.53;;;;;;;7.53;100.00;102251.59;5011970;28;20491;-50
2022/10/11 06:34:06;;;;;;;31.30;29.10;;;;;;;7.60;100.00;102257.19;5012399;28;20433;-54
2022/10/11 06:36:34;;;;;;;31.03;28.40;;;;;;;7.64;100.00;102264.75;5012132;28;20457;-46
2022/10/11 06:39:02;;;;;;;31.07;28.90;;;;;;;7.70;100.00;102255.38;5011872;28;20896;-52
2022/10/11 06:41:30;;;;;;;31.17;28.43;;;;;;;7.77;100.00;102259.13;5011879;28;20441;-48
2022/10/11 06:43:58;;;;;;;30.43;27.90;;;;;;;7.85;100.00;102271.69;5012360;28;20437;-49
2022/10/11 06:46:27;;;;;;;30.83;28.80;;;;;;;7.90;100.00;102275.59;5012015;28;20813;-49
2022/10/11 06:48:55;;;;;;;31.87;28.73;;;;;;;7.98;100.00;102277.53;5011582;28;20465;-45
2022/10/11 06:51:24;;;;;;;30.33;28.33;;;;;;;8.11;100.00;102270.97;5011896;28;20942;-47
2022/10/11 06:53:55;;;;;;;31.33;29.10;;;;;;;8.26;100.00;102271.34;5012203;28;20839;-47
2022/10/11 06:56:23;;;;;;;31.50;29.27;;;;;;;8.44;100.00;102274.09;5012102;28;20449;-47
2022/10/11 06:58:53;;;;;;;31.40;29.00;;;;;;;8.61;100.00;102287.47;5011825;28;20495;-49
2022/10/11 07:01:22;;;;;;;30.97;28.90;;;;;;;8.74;100.00;102282.66;5011953;28;20429;-47
2022/10/11 07:03:51;;;;;;;32.20;29.93;;;;;;;8.87;100.00;102283.13;5012106;28;20433;-46
2022/10/11 07:06:21;;;;;;;34.00;31.20;;;;;;;8.93;100.00;102287.03;5011851;28;20444;-45
2022/10/11 07:08:50;;;;;;;33.63;30.97;;;;;;;8.95;100.00;102290.41;5011538;28;20531;-47
2022/10/11 07:11:20;;;;;;;35.27;31.97;;;;;;;8.93;100.00;102294.19;5012955;28;20425;-46
2022/10/11 07:13:50;;;;;;;35.37;32.50;;;;;;;9.04;100.00;102289.50;5015935;28;20500;-52
2022/10/11 07:16:18;;;;;;;34.70;31.90;;;;;;;9.25;100.00;102297.22;5015885;28;20460;-44
2022/10/11 07:18:45;;;;;;;32.17;29.90;;;;;;;9.48;100.00;102301.13;5015466;28;20469;-47
2022/10/11 07:21:15;;;;;;;34.83;31.67;;;;;;;9.76;100.00;102305.38;5015345;28;20861;-44
2022/10/11 07:23:43;;;;;;;33.13;30.70;;;;;;;9.98;100.00;102310.22;5015832;28;20433;-49
2022/10/11 07:26:12;;;;;;;32.00;29.90;;;;;;;10.17;100.00;102316.38;5015714;28;20437;-52
2022/10/11 07:28:41;;;;;;;31.93;29.70;;;;;;;10.30;100.00;102308.81;5015123;28;20476;-47
2022/10/11 07:31:14;;;;;;;31.80;29.97;;;;;;;10.42;100.00;102319.06;5016034;28;20471;-51
2022/10/11 07:33:42;;;;;;;32.23;30.33;;;;;;;10.53;100.00;102312.63;5015469;28;20508;-48
2022/10/11 07:36:10;;;;;;;33.33;31.03;;;;;;;10.53;100.00;102316.13;5015212;28;20467;-45
2022/10/11 07:38:40;;;;;;;33.37;30.80;;;;;;;10.61;100.00;102314.50;5015008;28;20827;-48
2022/10/11 07:41:08;;;;;;;34.00;31.60;;;;;;;10.73;100.00;102321.22;5015282;28;20432;-46
2022/10/11 07:43:39;;;;;;;33.07;30.37;;;;;;;10.85;100.00;102320.78;5015347;28;20445;-52
2022/10/11 07:46:07;;;;;;;32.90;30.30;;;;;;;10.90;100.00;102326.47;5015485;28;20433;-52
2022/10/11 07:48:36;;;;;;;36.37;32.97;;;;;;;11.01;100.00;102320.03;5014553;28;20476;-49
2022/10/11 07:51:06;;;;;;;34.97;32.40;;;;;;;11.13;100.00;102324.09;5014943;28;20437;-49
2022/10/11 07:53:38;;;;;;;36.47;33.87;;;;;;;11.31;100.00;102319.47;5015204;28;20437;-54
2022/10/11 07:56:06;;;;;;;35.57;33.10;;;;;;;11.45;100.00;102332.19;5015134;28;20436;-52
2022/10/11 07:58:36;;;;;;;33.97;31.53;;;;;;;11.52;100.00;102335.88;5014573;28;20487;-53
2022/10/11 08:01:04;;;;;;;34.33;31.93;;;;;;;11.68;100.00;102335.88;5014633;28;20436;-49
2022/10/11 08:03:32;;;;;;;33.63;31.33;;;;;;;11.79;100.00;102331.28;5014864;28;20437;-55
2022/10/11 08:06:01;;;;;;;34.00;31.50;;;;;;;11.81;100.00;102329.25;5014928;28;20436;-51
2022/10/11 08:08:29;;;;;;;33.67;30.97;;;;;;;11.92;100.00;102332.44;5014598;28;20921;-51
2022/10/11 08:10:58;;;;;;;34.77;32.40;;;;;;;12.01;100.00;102328.75;5014539;28;20860;-55
2022/10/11 08:13:26;;;;;;;35.30;32.30;;;;;;;12.13;100.00;102332.75;5014698;28;20444;-54
2022/10/11 08:15:55;;;;;;;35.60;32.60;;;;;;;12.34;100.00;102329.56;5014833;28;20490;-48
2022/10/11 08:18:22;;;;;;;34.47;32.03;;;;;;;12.49;100.00;102325.19;5014229;28;20461;-52
2022/10/11 08:20:50;;;;;;;33.30;31.20;;;;;;;12.60;100.00;102329.38;5006008;28;20851;-53
2022/10/11 08:23:19;;;;;;;33.67;30.83;;;;;;;12.65;100.00;102319.81;5014497;28;20433;-49
2022/10/11 08:25:47;;;;;;;35.80;33.17;;;;;;;12.72;100.00;102323.44;5014435;28;20440;-52
2022/10/11 08:28:16;;;;;;;36.10;33.60;;;;;;;12.71;100.00;102323.63;5013809;28;20523;-49
2022/10/11 08:30:48;;;;;;;36.00;33.50;;;;;;;12.88;100.00;102332.44;5014491;28;20898;-48
2022/10/11 08:33:18;;;;;;;36.50;33.90;;;;;;;13.01;100.00;102325.53;5014308;28;21043;-48
2022/10/11 08:35:45;;;;;;;37.33;33.70;;;;;;;13.11;100.00;102330.72;5014286;28;20784;-52
2022/10/11 08:38:13;;;;;;;36.33;33.97;;;;;;;13.13;100.00;102324.19;5013703;28;20461;-53
2022/10/11 08:40:46;;;;;;;36.40;33.87;;;;;;;13.24;100.00;102334.50;5013954;28;20428;-52
2022/10/11 08:43:24;;;;;;;36.23;33.60;;;;;;;13.39;100.00;102331.06;5014237;28;20440;-47
2022/10/11 08:45:55;;;;;;;35.50;33.20;;;;;;;13.57;100.00;102327.09;5014113;28;20969;-53
2022/10/11 08:48:32;;;;;;;35.17;32.47;;;;;;;13.62;100.00;102332.75;5013603;28;20468;-50
2022/10/11 08:51:03;;;;;;;36.80;34.00;;;;;;;13.70;100.00;102330.03;5013751;28;20487;-54
2022/10/11 08:53:43;;;;;;;33.90;31.70;;;;;;;13.81;100.00;102337.66;5014254;28;20437;-52
2022/10/11 08:56:13;;;;;;;35.90;33.20;;;;;;;13.92;100.00;102335.56;5014074;28;20782;-51
2022/10/11 08:58:47;;;;;;;33.97;31.77;;;;;;;13.89;100.00;102336.75;5013371;28;20460;-53
2022/10/11 09:01:20;;;;;;;35.33;32.90;;;;;;;13.95;100.00;102332.53;5013565;28;20440;-53
2022/10/11 09:03:50;;;;;;;35.70;33.20;;;;;;;14.01;100.00;102339.84;5013706;28;20540;-52
2022/10/11 09:06:27;;;;;;;35.83;33.23;;;;;;;14.10;100.00;102336.91;5013791;28;20513;-49
2022/10/11 09:09:37;;;;;;;38.77;36.00;;;;;;;14.23;100.00;102339.81;5013316;28;20480;-50
2022/10/11 09:12:15;;;;;;;37.00;34.13;;;;;;;14.44;100.00;102343.66;5012746;28;20441;-54
2022/10/11 09:15:00;;;;;;;36.23;33.53;;;;;;;14.72;100.00;102344.72;5013833;28;20437;-54
2022/10/11 09:17:41;;;;;;;35.17;32.70;;;;;;;14.97;100.00;102338.03;5013416;28;20531;-53
2022/10/11 09:20:34;;;;;;;34.13;31.73;;;;;;;15.44;100.00;102342.97;5013182;28;20441;-52
2022/10/11 09:23:05;;;;;;;36.37;33.50;;;;;;;15.54;98.42;102343.50;5007375;28;20441;-50
2022/10/11 09:25:35;;;;;;;33.33;31.27;;;;;;;15.58;96.20;102343.97;5013372;28;20985;-46
2022/10/11 09:28:13;;;;;;;34.93;32.80;;;;;;;15.60;93.24;102342.75;5012903;28;20465;-46
2022/10/11 09:30:47;;;;;;;36.30;34.00;;;;;;;15.61;95.38;102352.50;5013100;28;20567;-49
2022/10/11 09:33:19;;;;;;;33.57;31.97;;;;;;;15.62;94.78;102346.06;5013633;28;20514;-50
2022/10/11 09:35:50;;;;;;;33.83;31.57;;;;;;;15.68;95.77;102355.25;5012948;28;20417;-48
2022/10/11 09:38:27;;;;;;;35.00;32.80;;;;;;;15.62;94.88;102358.72;5012650;28;20479;-49
2022/10/11 09:41:05;;;;;;;34.60;32.20;;;;;;;15.21;89.78;102359.22;5012766;28;20514;-44
2022/10/11 09:43:33;;;;;;;31.00;28.83;;;;;;;15.01;88.70;102355.47;5013147;28;20444;-46
2022/10/11 09:46:01;;;;;;;32.70;30.47;;;;;;;14.88;92.59;102356.09;5012742;28;20436;-45
2022/10/11 09:48:38;;;;;;;29.17;27.50;;;;;;;14.56;89.03;102361.84;5012624;28;20839;-46
2022/10/11 09:51:13;;;;;;;30.20;28.23;;;;;;;14.29;90.47;102368.59;5012809;28;20499;-47
2022/10/11 09:53:53;;;;;;;29.30;27.77;;;;;;;13.59;95.22;102373.31;5013019;28;20436;-51
2022/10/11 09:56:22;;;;;;;28.20;26.47;;;;;;;13.24;99.26;102384.56;5012896;28;20479;-50
2022/10/11 09:59:07;;;;;;;29.90;28.17;;;;;;;13.08;100.00;102381.97;5012405;28;20461;-52
2022/10/11 10:01:35;;;;;;;29.77;27.97;;;;;;;13.12;100.00;102384.09;5012504;28;20831;-49
2022/10/11 10:04:09;;;;;;;29.00;27.43;;;;;;;13.22;100.00;102387.41;5012382;28;20524;-53
2022/10/11 10:06:38;;;;;;;29.00;27.40;;;;;;;13.21;100.00;102392.94;5012645;28;20502;-52
2022/10/11 10:09:24;;;;;;;30.90;29.20;;;;;;;13.12;100.00;102392.13;5012108;28;20882;-49
2022/10/11 10:11:52;;;;;;;30.90;28.90;;;;;;;13.10;100.00;102394.16;5012269;28;20436;-45
2022/10/11 10:14:23;;;;;;;31.13;29.33;;;;;;;13.07;100.00;102402.50;5012436;28;20437;-46
2022/10/11 10:17:00;;;;;;;30.90;29.40;;;;;;;13.07;100.00;102401.66;5012510;28;20843;-51
2022/10/11 10:19:29;;;;;;;30.23;28.73;;;;;;;13.11;100.00;102408.41;5010551;28;20900;-46
2022/10/11 10:21:58;;;;;;;31.50;29.40;;;;;;;13.21;100.00;102409.84;5005414;28;21036;-52
2022/10/11 10:24:37;;;;;;;31.00;29.23;;;;;;;13.35;100.00;102410.16;5012348;28;20444;-54
2022/10/11 10:27:07;;;;;;;31.23;29.63;;;;;;;13.48;100.00;102410.41;5012500;28;20890;-52
2022/10/11 10:29:35;;;;;;;31.87;29.80;;;;;;;13.58;100.00;102417.22;5011833;28;20472;-53
2022/10/11 10:32:10;;;;;;;32.90;30.90;;;;;;;13.88;100.00;102414.69;5011991;28;20532;-50
2022/10/11 10:34:54;;;;;;;32.90;31.40;;;;;;;14.34;100.00;102413.69;5012441;28;20448;-46
2022/10/11 10:37:29;;;;;;;33.20;31.27;;;;;;;14.57;100.00;102416.38;5012266;28;20503;-50
2022/10/11 10:40:02;;;;;;;33.00;30.70;;;;;;;14.89;100.00;102402.59;5012039;28;20486;-48
2022/10/11 10:42:30;;;;;;;30.43;28.80;;;;;;;14.84;100.00;102405.81;5011943;28;20927;-49
2022/10/11 10:44:58;;;;;;;29.73;28.07;;;;;;;14.82;95.65;102415.09;5011904;28;20464;-49
2022/10/11 10:47:48;;;;;;;30.10;28.07;;;;;;;14.86;95.78;102409.19;5010965;28;20469;-52
2022/10/11 10:50:21;;;;;;;27.90;26.33;;;;;;;14.90;94.09;102413.16;5011882;28;20871;-51
2022/10/11 10:53:02;;;;;;;29.27;27.97;;;;;;;15.17;94.04;102405.50;5011604;28;20483;-45
2022/10/11 10:55:35;;;;;;;28.73;27.20;;;;;;;15.44;92.16;102411.00;5011890;28;20429;-47
2022/10/11 10:58:21;;;;;;;28.23;26.40;;;;;;;15.53;87.60;102405.56;5011289;28;20993;-50
2022/10/11 11:00:51;;;;;;;26.70;25.30;;;;;;;15.62;84.48;102413.31;5011889;28;20834;-48
2022/10/11 11:03:23;;;;;;;26.83;25.43;;;;;;;15.76;83.49;102419.69;5011917;28;20441;-47
2022/10/11 11:05:59;;;;;;;26.83;25.13;;;;;;;15.81;84.66;102419.94;5011804;28;20429;-47
2022/10/11 11:08:39;;;;;;;26.57;25.23;;;;;;;15.72;84.17;102411.16;5011249;28;20514;-48
2022/10/11 11:11:23;;;;;;;24.50;23.03;;;;;;;15.46;80.90;102426.94;5011507;28;20476;-49
2022/10/11 11:13:58;;;;;;;25.20;24.07;;;;;;;15.34;84.11;102429.28;5011827;28;20494;-53
2022/10/11 11:16:31;;;;;;;23.57;22.17;;;;;;;15.10;80.94;102417.97;5011776;28;20503;-47
2022/10/11 11:19:08;;;;;;;21.63;20.17;;;;;;;14.96;79.46;102425.03;5011201;28;20469;-45
2022/10/11 11:21:45;;;;;;;21.80;20.77;;;;;;;15.07;81.48;102429.09;5010239;28;20425;-46
2022/10/11 11:24:24;;;;;;;23.57;21.97;;;;;;;15.31;81.98;102420.75;5011677;28;20487;-47